Time;durP1;ratioP1;P1;durP2;ratioP2;P2;SDS_P1;SDS_P2;PMS_P1;PMS_P2;Temp;Humidity;BMP_temperature;BMP_pressure;BME280_temperature;BME280_humidity;BME280_pressure;Samples;Min_cycle;Max_cycle;Signal;HPM_P1;HPM_P2
2022/03/16 00:02:23;;;;;;;12.17;7.07;;;;;;;;;;4986761;28;20025;-51
2022/03/16 00:04:52;;;;;;;10.85;7.38;;;;;;;;;;4972520;28;20320;-51
2022/03/16 00:07:17;;;;;;;11.68;7.63;;;;;;;;;;5008012;28;20045;-53
2022/03/16 00:09:43;;;;;;;11.43;7.28;;;;;;;;;;5005741;28;20029;-51
2022/03/16 00:12:09;;;;;;;11.90;7.90;;;;;;;;;;4992741;28;20033;-51
2022/03/16 00:14:35;;;;;;;13.35;7.65;;;;;;;;;;4983966;28;20010;-51
2022/03/16 00:17:00;;;;;;;10.07;6.97;;;;;;;;;;4983714;28;20497;-50
2022/03/16 00:19:25;;;;;;;12.20;7.50;;;;;;;;;;4984398;28;20034;-51
2022/03/16 00:21:51;;;;;;;10.53;7.03;;;;;;;;;;4983795;28;20171;-50
2022/03/16 00:24:16;;;;;;;11.13;7.47;;;;;;;;;;4971418;28;20813;-51
2022/03/16 00:26:41;;;;;;;11.80;7.10;;;;;;;;;;4994637;28;20580;-51
2022/03/16 00:29:06;;;;;;;11.60;7.57;;;;;;;;;;5002375;28;20464;-51
2022/03/16 00:31:32;;;;;;;10.43;7.17;;;;;;;;;;4996860;28;20273;-51
2022/03/16 00:33:57;;;;;;;12.13;7.68;;;;;;;;;;4983098;28;20282;-51
2022/03/16 00:36:23;;;;;;;11.57;7.00;;;;;;;;;;4983141;28;20542;-51
2022/03/16 00:38:48;;;;;;;11.23;6.53;;;;;;;;;;4983339;28;20676;-51
2022/03/16 00:41:14;;;;;;;11.45;7.38;;;;;;;;;;4983653;28;20287;-51
2022/03/16 00:43:39;;;;;;;13.97;8.17;;;;;;;;;;4983604;28;20010;-51
2022/03/16 00:46:04;;;;;;;11.90;7.93;;;;;;;;;;4983543;28;20304;-50
2022/03/16 00:48:29;;;;;;;11.33;6.97;;;;;;;;;;4983705;28;20034;-51
2022/03/16 00:50:54;;;;;;;11.33;7.13;;;;;;;;;;4983758;28;20289;-51
2022/03/16 00:53:20;;;;;;;12.40;7.80;;;;;;;;;;4983121;28;20301;-51
2022/03/16 00:55:45;;;;;;;11.87;7.57;;;;;;;;;;4983674;28;20281;-51
2022/03/16 00:58:10;;;;;;;11.00;7.27;;;;;;;;;;4983699;28;20725;-50
2022/03/16 01:00:35;;;;;;;12.00;7.47;;;;;;;;;;4983300;28;20265;-51
2022/03/16 01:03:01;;;;;;;12.18;7.80;;;;;;;;;;4981299;28;20675;-51
2022/03/16 01:05:26;;;;;;;12.52;7.68;;;;;;;;;;4969049;28;20110;-51
2022/03/16 01:07:51;;;;;;;11.87;7.47;;;;;;;;;;4983539;28;20041;-51
2022/03/16 01:10:16;;;;;;;13.80;7.60;;;;;;;;;;4983880;28;20034;-50
2022/03/16 01:12:42;;;;;;;13.50;8.02;;;;;;;;;;4983643;28;20269;-51
2022/03/16 01:15:07;;;;;;;10.47;7.33;;;;;;;;;;4986052;28;20026;-52
2022/03/16 01:17:32;;;;;;;11.18;7.78;;;;;;;;;;5003002;28;20371;-51
2022/03/16 01:19:57;;;;;;;13.40;8.10;;;;;;;;;;5001809;28;20912;-50
2022/03/16 01:22:23;;;;;;;11.13;7.70;;;;;;;;;;5003152;28;20642;-52
2022/03/16 01:24:48;;;;;;;10.87;7.20;;;;;;;;;;4986497;28;20496;-49
2022/03/16 01:27:13;;;;;;;11.70;7.37;;;;;;;;;;4986500;28;20556;-52
2022/03/16 01:29:38;;;;;;;14.40;8.10;;;;;;;;;;5002718;28;20283;-52
2022/03/16 01:32:04;;;;;;;12.67;8.30;;;;;;;;;;4992367;28;20345;-51
2022/03/16 01:34:29;;;;;;;14.02;8.07;;;;;;;;;;4982957;28;20037;-52
2022/03/16 01:36:54;;;;;;;12.60;7.70;;;;;;;;;;4983013;28;20030;-52
2022/03/16 01:39:19;;;;;;;14.75;7.25;;;;;;;;;;4981638;28;20041;-51
2022/03/16 01:41:45;;;;;;;11.60;7.60;;;;;;;;;;4983431;28;20505;-51
2022/03/16 01:44:10;;;;;;;12.50;7.82;;;;;;;;;;4972158;28;20313;-53
2022/03/16 01:46:35;;;;;;;13.23;8.45;;;;;;;;;;4992681;28;20493;-52
2022/03/16 01:49:00;;;;;;;12.23;7.67;;;;;;;;;;5002400;28;20026;-51
2022/03/16 01:51:26;;;;;;;12.25;7.50;;;;;;;;;;4997775;28;20308;-51
2022/03/16 01:53:51;;;;;;;11.27;7.90;;;;;;;;;;4983049;28;20052;-52
2022/03/16 01:56:16;;;;;;;13.57;8.47;;;;;;;;;;4983018;28;20031;-51
2022/03/16 01:58:42;;;;;;;12.35;7.97;;;;;;;;;;4981699;28;20112;-51
2022/03/16 02:01:07;;;;;;;14.05;8.40;;;;;;;;;;4985510;28;20038;-51
2022/03/16 02:03:32;;;;;;;14.07;8.10;;;;;;;;;;4996909;28;20026;-51
2022/03/16 02:05:59;;;;;;;13.88;8.38;;;;;;;;;;4983241;28;20040;-51
2022/03/16 02:08:24;;;;;;;13.57;7.82;;;;;;;;;;4982104;28;20030;-51
2022/03/16 02:10:49;;;;;;;15.13;8.57;;;;;;;;;;4981799;28;20088;-50
2022/03/16 02:13:15;;;;;;;13.53;8.43;;;;;;;;;;4985384;28;20367;-51
2022/03/16 02:15:40;;;;;;;12.67;7.87;;;;;;;;;;4986771;28;20278;-51
2022/03/16 02:18:05;;;;;;;13.90;8.03;;;;;;;;;;4986712;28;20348;-51
2022/03/16 02:20:31;;;;;;;14.25;7.90;;;;;;;;;;4985677;28;20312;-51
2022/03/16 02:22:56;;;;;;;13.00;8.03;;;;;;;;;;4985325;28;20030;-51
2022/03/16 02:25:21;;;;;;;13.40;8.07;;;;;;;;;;4971340;28;20312;-51
2022/03/16 02:27:47;;;;;;;10.73;7.30;;;;;;;;;;4986755;28;20372;-51
2022/03/16 02:30:12;;;;;;;12.93;8.77;;;;;;;;;;4985076;28;20081;-51
2022/03/16 02:32:37;;;;;;;13.05;8.13;;;;;;;;;;4986090;28;21112;-50
2022/03/16 02:35:03;;;;;;;13.05;8.18;;;;;;;;;;4985997;28;20023;-51
2022/03/16 02:37:28;;;;;;;13.38;8.30;;;;;;;;;;4986533;28;20520;-51
2022/03/16 02:39:54;;;;;;;14.63;8.33;;;;;;;;;;4986302;28;20100;-51
2022/03/16 02:42:20;;;;;;;13.60;8.32;;;;;;;;;;4986202;28;20340;-51
2022/03/16 02:44:45;;;;;;;13.37;7.93;;;;;;;;;;4970575;28;20026;-51
2022/03/16 02:47:10;;;;;;;12.70;7.87;;;;;;;;;;5004351;28;20315;-51
2022/03/16 02:49:36;;;;;;;13.37;8.60;;;;;;;;;;5005590;28;20489;-51
2022/03/16 02:52:07;;;;;;;15.65;8.85;;;;;;;;;;4996067;28;20301;-51
2022/03/16 02:54:33;;;;;;;13.45;8.55;;;;;;;;;;4985691;28;20065;-52
2022/03/16 02:56:58;;;;;;;11.97;7.80;;;;;;;;;;4984225;28;20034;-51
2022/03/16 02:59:23;;;;;;;13.07;8.43;;;;;;;;;;4985579;28;20305;-51
2022/03/16 03:01:48;;;;;;;12.97;7.87;;;;;;;;;;4986003;28;20053;-51
2022/03/16 03:04:14;;;;;;;13.90;8.70;;;;;;;;;;4985464;28;20261;-51
2022/03/16 03:06:39;;;;;;;13.25;8.23;;;;;;;;;;4985868;28;20831;-50
2022/03/16 03:09:04;;;;;;;14.87;8.37;;;;;;;;;;4985438;28;20049;-50
2022/03/16 03:11:29;;;;;;;13.00;8.50;;;;;;;;;;4985335;28;20312;-51
2022/03/16 03:13:54;;;;;;;14.40;9.03;;;;;;;;;;4985404;28;20273;-51
2022/03/16 03:16:20;;;;;;;13.68;9.05;;;;;;;;;;4985374;28;20041;-52
2022/03/16 03:18:45;;;;;;;17.17;9.70;;;;;;;;;;4985354;28;20797;-51
2022/03/16 03:21:10;;;;;;;15.32;9.00;;;;;;;;;;4985299;28;20277;-51
2022/03/16 03:23:35;;;;;;;13.87;8.10;;;;;;;;;;4978814;28;20045;-51
2022/03/16 03:26:01;;;;;;;14.30;8.77;;;;;;;;;;4974570;28;20305;-51
2022/03/16 03:28:26;;;;;;;12.27;8.23;;;;;;;;;;4985240;28;20304;-51
2022/03/16 03:30:51;;;;;;;12.38;8.20;;;;;;;;;;4984819;28;20824;-50
2022/03/16 03:33:16;;;;;;;13.27;8.67;;;;;;;;;;4985328;28;20027;-51
2022/03/16 03:35:42;;;;;;;15.07;9.30;;;;;;;;;;4984888;28;20327;-51
2022/03/16 03:38:07;;;;;;;14.70;8.93;;;;;;;;;;4985333;28;20281;-52
2022/03/16 03:40:32;;;;;;;14.07;9.17;;;;;;;;;;4985151;28;20779;-52
2022/03/16 03:42:57;;;;;;;12.77;8.80;;;;;;;;;;4984105;28;20657;-52
2022/03/16 03:45:23;;;;;;;14.47;8.73;;;;;;;;;;4969908;28;20611;-50
2022/03/16 03:47:48;;;;;;;14.05;9.20;;;;;;;;;;4984862;28;20317;-51
2022/03/16 03:50:13;;;;;;;14.80;9.33;;;;;;;;;;4984957;28;20084;-50
2022/03/16 03:52:38;;;;;;;13.33;8.77;;;;;;;;;;4984700;28;20281;-50
2022/03/16 03:55:04;;;;;;;13.47;9.23;;;;;;;;;;4984621;28;20043;-50
2022/03/16 03:57:29;;;;;;;14.05;8.68;;;;;;;;;;4984699;28;20285;-51
2022/03/16 03:59:54;;;;;;;15.30;9.50;;;;;;;;;;4984644;28;20037;-51
2022/03/16 04:02:19;;;;;;;13.77;8.52;;;;;;;;;;4984580;28;20132;-51
2022/03/16 04:04:45;;;;;;;14.73;9.23;;;;;;;;;;4969225;28;20481;-52
2022/03/16 04:07:10;;;;;;;13.77;8.27;;;;;;;;;;4983503;28;20514;-52
2022/03/16 04:09:35;;;;;;;15.00;9.77;;;;;;;;;;4984730;28;20548;-51
2022/03/16 04:12:00;;;;;;;13.00;8.33;;;;;;;;;;4983263;28;20121;-51
2022/03/16 04:14:26;;;;;;;13.80;9.07;;;;;;;;;;4984233;28;20270;-51
2022/03/16 04:16:51;;;;;;;13.70;9.30;;;;;;;;;;4984357;28;20284;-52
2022/03/16 04:19:16;;;;;;;14.18;9.23;;;;;;;;;;4984284;28;20335;-52
2022/03/16 04:21:42;;;;;;;15.50;9.43;;;;;;;;;;4984251;28;20026;-52
2022/03/16 04:24:07;;;;;;;13.37;8.70;;;;;;;;;;4974383;28;20019;-51
2022/03/16 04:26:32;;;;;;;14.10;8.80;;;;;;;;;;4978183;28;20302;-51
2022/03/16 04:28:57;;;;;;;12.35;7.85;;;;;;;;;;4983925;28;20136;-51
2022/03/16 04:31:23;;;;;;;15.37;8.87;;;;;;;;;;4984086;28;20034;-52
2022/03/16 04:33:48;;;;;;;13.27;8.90;;;;;;;;;;4982961;28;20274;-50
2022/03/16 04:36:13;;;;;;;13.93;8.90;;;;;;;;;;4984094;28;20320;-51
2022/03/16 04:38:38;;;;;;;13.57;9.17;;;;;;;;;;4984215;28;20061;-51
2022/03/16 04:41:04;;;;;;;14.30;8.53;;;;;;;;;;4983802;28;20050;-51
2022/03/16 04:43:29;;;;;;;15.30;9.15;;;;;;;;;;4979184;28;20035;-50
2022/03/16 04:45:54;;;;;;;13.15;8.85;;;;;;;;;;4981106;28;20060;-49
2022/03/16 04:48:19;;;;;;;12.90;8.68;;;;;;;;;;5003644;28;20493;-51
2022/03/16 04:50:45;;;;;;;16.83;9.00;;;;;;;;;;5003537;28;20041;-51
2022/03/16 04:53:10;;;;;;;15.37;8.93;;;;;;;;;;4984333;28;20469;-50
2022/03/16 04:55:36;;;;;;;16.88;9.40;;;;;;;;;;4983969;28;20340;-51
2022/03/16 04:58:02;;;;;;;12.68;8.77;;;;;;;;;;4975234;28;20029;-51
2022/03/16 05:00:27;;;;;;;13.27;8.40;;;;;;;;;;4975749;28;20018;-52
2022/03/16 05:02:53;;;;;;;12.53;8.43;;;;;;;;;;4962759;28;20117;-51
2022/03/16 05:05:18;;;;;;;14.73;8.90;;;;;;;;;;4962590;28;20110;-51
2022/03/16 05:07:43;;;;;;;14.23;8.60;;;;;;;;;;4967700;28;20085;-51
2022/03/16 05:10:09;;;;;;;12.90;8.10;;;;;;;;;;4964275;28;20285;-51
2022/03/16 05:12:37;;;;;;;13.25;7.68;;;;;;;;;;4966321;28;20022;-51
2022/03/16 05:15:04;;;;;;;14.40;8.57;;;;;;;;;;4964208;28;20010;-51
2022/03/16 05:17:29;;;;;;;10.75;7.95;;;;;;;;;;4963312;28;20030;-51
2022/03/16 05:19:54;;;;;;;13.43;8.53;;;;;;;;;;4974294;28;20042;-51
2022/03/16 05:22:19;;;;;;;11.40;7.83;;;;;;;;;;4970333;28;20039;-50
2022/03/16 05:24:45;;;;;;;14.47;8.30;;;;;;;;;;4963380;28;20281;-50
2022/03/16 05:27:10;;;;;;;12.88;8.45;;;;;;;;;;4982222;28;20281;-51
2022/03/16 05:29:35;;;;;;;12.77;8.20;;;;;;;;;;4983088;28;20106;-51
2022/03/16 05:32:00;;;;;;;13.68;8.65;;;;;;;;;;4983324;28;20168;-51
2022/03/16 05:34:26;;;;;;;14.40;8.60;;;;;;;;;;4983489;28;20122;-50
2022/03/16 05:36:51;;;;;;;12.00;8.52;;;;;;;;;;4981372;28;20011;-50
2022/03/16 05:39:16;;;;;;;12.87;8.67;;;;;;;;;;4978495;28;20025;-51
2022/03/16 05:41:41;;;;;;;11.93;8.60;;;;;;;;;;4972028;28;20034;-51
2022/03/16 05:44:07;;;;;;;11.57;7.87;;;;;;;;;;4963003;28;20014;-51
2022/03/16 05:46:32;;;;;;;13.07;8.45;;;;;;;;;;4964764;28;20031;-52
2022/03/16 05:48:58;;;;;;;13.00;8.40;;;;;;;;;;4967487;28;20026;-51
2022/03/16 05:51:23;;;;;;;14.03;8.20;;;;;;;;;;4987042;28;20026;-50
2022/03/16 05:53:48;;;;;;;13.37;8.40;;;;;;;;;;4986891;28;20295;-50
2022/03/16 05:56:13;;;;;;;14.33;8.53;;;;;;;;;;4987437;28;20030;-51
2022/03/16 05:58:38;;;;;;;13.40;8.23;;;;;;;;;;4991623;28;20094;-51
2022/03/16 06:01:04;;;;;;;13.27;8.57;;;;;;;;;;4991600;28;20054;-50
2022/03/16 06:03:29;;;;;;;14.83;8.50;;;;;;;;;;4990215;28;20769;-50
2022/03/16 06:05:54;;;;;;;14.27;8.83;;;;;;;;;;4980375;28;20319;-52
2022/03/16 06:08:19;;;;;;;12.98;8.00;;;;;;;;;;4988711;28;20281;-50
2022/03/16 06:10:45;;;;;;;12.00;8.37;;;;;;;;;;4988218;28;20391;-50
2022/03/16 06:13:10;;;;;;;12.47;8.63;;;;;;;;;;4988484;28;20577;-51
2022/03/16 06:15:39;;;;;;;13.32;8.55;;;;;;;;;;4988960;28;20090;-52
2022/03/16 06:18:05;;;;;;;13.13;8.07;;;;;;;;;;4985113;28;20030;-52
2022/03/16 06:20:31;;;;;;;15.15;8.90;;;;;;;;;;4985969;28;20038;-52
2022/03/16 06:22:56;;;;;;;13.02;8.75;;;;;;;;;;4985392;28;20026;-49
2022/03/16 06:25:24;;;;;;;14.13;8.23;;;;;;;;;;4975466;28;20172;-51
2022/03/16 06:27:50;;;;;;;12.10;8.18;;;;;;;;;;4980759;28;20274;-51
2022/03/16 06:30:15;;;;;;;12.13;8.00;;;;;;;;;;4976354;28;20647;-51
2022/03/16 06:32:42;;;;;;;11.97;8.20;;;;;;;;;;4985078;28;20088;-50
2022/03/16 06:35:08;;;;;;;13.43;8.63;;;;;;;;;;4983231;28;20272;-51
2022/03/16 06:37:33;;;;;;;12.15;8.25;;;;;;;;;;4984511;28;20099;-51
2022/03/16 06:39:58;;;;;;;14.43;8.90;;;;;;;;;;4983181;28;20030;-51
2022/03/16 06:42:24;;;;;;;11.87;7.77;;;;;;;;;;4983783;28;20274;-50
2022/03/16 06:44:49;;;;;;;11.20;8.40;;;;;;;;;;4984165;28;20320;-50
2022/03/16 06:47:14;;;;;;;13.60;8.47;;;;;;;;;;4984971;28;20279;-51
2022/03/16 06:49:39;;;;;;;13.03;8.83;;;;;;;;;;4984368;28;20286;-50
2022/03/16 06:52:05;;;;;;;13.00;8.13;;;;;;;;;;4984762;28;20116;-51
2022/03/16 06:54:30;;;;;;;14.10;8.45;;;;;;;;;;4984190;28;20301;-51
2022/03/16 06:56:55;;;;;;;13.60;7.70;;;;;;;;;;4985485;28;20049;-52
2022/03/16 06:59:20;;;;;;;13.77;8.30;;;;;;;;;;4984254;28;20041;-51
2022/03/16 07:01:46;;;;;;;13.50;8.93;;;;;;;;;;4985489;28;20752;-52
2022/03/16 07:04:11;;;;;;;12.30;7.87;;;;;;;;;;4984989;28;20683;-49
2022/03/16 07:06:36;;;;;;;14.53;8.73;;;;;;;;;;4984783;28;20564;-50
2022/03/16 07:09:02;;;;;;;12.60;8.38;;;;;;;;;;4978624;28;20503;-51
2022/03/16 07:11:27;;;;;;;12.70;8.07;;;;;;;;;;4984730;28;20026;-51
2022/03/16 07:16:37;;;;;;;13.80;8.65;;;;;;;;;;4985357;28;20037;-51
2022/03/16 07:19:02;;;;;;;12.37;8.33;;;;;;;;;;4983631;28;20034;-52
2022/03/16 07:21:27;;;;;;;12.40;8.23;;;;;;;;;;4977850;28;20035;-52
2022/03/16 07:23:52;;;;;;;13.93;8.70;;;;;;;;;;4969108;28;20297;-52
2022/03/16 07:26:18;;;;;;;12.43;8.30;;;;;;;;;;4976709;28;20293;-51
2022/03/16 07:28:43;;;;;;;13.90;9.05;;;;;;;;;;4985401;28;20133;-51
2022/03/16 07:31:08;;;;;;;12.90;8.27;;;;;;;;;;4985300;28;20041;-52
2022/03/16 07:33:34;;;;;;;13.85;8.40;;;;;;;;;;4969834;28;20010;-51
2022/03/16 07:35:59;;;;;;;16.08;9.38;;;;;;;;;;4973957;28;20549;-50
2022/03/16 07:38:25;;;;;;;13.70;8.97;;;;;;;;;;4984177;28;20522;-51
2022/03/16 07:40:50;;;;;;;13.45;9.38;;;;;;;;;;4984155;28;20549;-50
2022/03/16 07:43:15;;;;;;;14.27;8.80;;;;;;;;;;4965687;28;20131;-50
2022/03/16 07:45:40;;;;;;;15.73;8.88;;;;;;;;;;4966067;28;20356;-51
2022/03/16 07:48:06;;;;;;;15.40;9.63;;;;;;;;;;4965028;28;20583;-49
2022/03/16 07:50:31;;;;;;;15.13;9.48;;;;;;;;;;4966170;28;20015;-50
2022/03/16 07:52:56;;;;;;;14.63;9.63;;;;;;;;;;4964869;28;20057;-51
2022/03/16 07:55:21;;;;;;;14.68;9.40;;;;;;;;;;4966305;28;20157;-55
2022/03/16 07:57:47;;;;;;;16.93;10.57;;;;;;;;;;4971323;28;20513;-50
2022/03/16 08:00:13;;;;;;;13.38;9.40;;;;;;;;;;4976000;28;20304;-51
2022/03/16 08:02:38;;;;;;;14.20;8.73;;;;;;;;;;4983191;28;20641;-51
2022/03/16 08:05:04;;;;;;;15.40;10.10;;;;;;;;;;4984374;28;20105;-50
2022/03/16 08:07:29;;;;;;;16.95;10.70;;;;;;;;;;4981547;28;20555;-50
2022/03/16 08:09:55;;;;;;;15.82;9.55;;;;;;;;;;4972388;28;20022;-51
2022/03/16 08:12:20;;;;;;;15.43;9.93;;;;;;;;;;4984478;28;20036;-50
2022/03/16 08:14:45;;;;;;;16.50;9.97;;;;;;;;;;4971880;28;20026;-50
2022/03/16 08:17:10;;;;;;;14.63;9.57;;;;;;;;;;4967545;28;21878;-50
2022/03/16 08:19:36;;;;;;;15.23;9.63;;;;;;;;;;4981540;28;20529;-51
2022/03/16 08:22:01;;;;;;;14.07;9.82;;;;;;;;;;4985783;28;20641;-51
2022/03/16 08:24:26;;;;;;;15.25;10.20;;;;;;;;;;4983794;28;20114;-50
2022/03/16 08:26:51;;;;;;;15.57;9.90;;;;;;;;;;4983295;28;20460;-50
2022/03/16 08:29:17;;;;;;;15.10;9.07;;;;;;;;;;4984154;28;20499;-49
2022/03/16 08:31:43;;;;;;;18.90;10.57;;;;;;;;;;4984026;28;20018;-50
2022/03/16 08:34:08;;;;;;;13.20;8.73;;;;;;;;;;4984211;28;20031;-50
2022/03/16 08:36:33;;;;;;;16.70;10.02;;;;;;;;;;4984619;28;20273;-50
2022/03/16 08:39:02;;;;;;;15.00;9.90;;;;;;;;;;4984024;28;20026;-50
2022/03/16 08:41:28;;;;;;;15.80;9.57;;;;;;;;;;4988347;28;20048;-50
2022/03/16 08:43:53;;;;;;;16.52;10.38;;;;;;;;;;4996035;28;20014;-49
2022/03/16 08:46:19;;;;;;;15.43;10.07;;;;;;;;;;4984249;28;20096;-51
2022/03/16 08:48:44;;;;;;;18.20;10.60;;;;;;;;;;4984025;28;20109;-50
2022/03/16 08:51:10;;;;;;;17.40;10.68;;;;;;;;;;4983822;28;20285;-50
2022/03/16 08:53:37;;;;;;;16.75;10.68;;;;;;;;;;4983603;28;20057;-51
2022/03/16 08:56:02;;;;;;;14.30;8.88;;;;;;;;;;4983688;28;20019;-51
2022/03/16 08:58:27;;;;;;;17.52;10.55;;;;;;;;;;4983979;28;20026;-51
2022/03/16 09:00:53;;;;;;;16.48;10.25;;;;;;;;;;4976816;28;20023;-51
2022/03/16 09:03:18;;;;;;;17.47;10.20;;;;;;;;;;4980723;28;20525;-52
2022/03/16 09:05:43;;;;;;;16.03;10.27;;;;;;;;;;4970312;28;20409;-51
2022/03/16 09:08:09;;;;;;;18.27;10.03;;;;;;;;;;4983693;28;20046;-51
2022/03/16 09:10:34;;;;;;;15.75;9.95;;;;;;;;;;4984025;28;20277;-51
2022/03/16 09:12:59;;;;;;;15.67;10.50;;;;;;;;;;4983454;28;20022;-50
2022/03/16 09:15:25;;;;;;;17.38;10.48;;;;;;;;;;4983614;28;20265;-50
2022/03/16 09:17:52;;;;;;;19.15;10.88;;;;;;;;;;4983697;28;20108;-50
2022/03/16 09:20:17;;;;;;;16.10;9.90;;;;;;;;;;4983400;28;20031;-51
2022/03/16 09:22:43;;;;;;;18.17;10.73;;;;;;;;;;4982898;28;20573;-51
2022/03/16 09:25:08;;;;;;;18.37;10.63;;;;;;;;;;4968374;28;20576;-51
2022/03/16 09:27:35;;;;;;;16.25;9.93;;;;;;;;;;4992932;28;20121;-51
2022/03/16 09:30:02;;;;;;;15.35;10.02;;;;;;;;;;5003045;28;20037;-51
2022/03/16 09:32:28;;;;;;;17.13;10.50;;;;;;;;;;4991036;28;20042;-50
2022/03/16 09:34:53;;;;;;;16.70;10.07;;;;;;;;;;4983546;28;20030;-51
2022/03/16 09:37:18;;;;;;;15.07;9.80;;;;;;;;;;4983112;28;20034;-51
2022/03/16 09:39:44;;;;;;;14.70;9.80;;;;;;;;;;4983257;28;20270;-50
2022/03/16 09:42:09;;;;;;;15.48;10.30;;;;;;;;;;4983151;28;20281;-51
2022/03/16 09:44:36;;;;;;;16.35;9.80;;;;;;;;;;4970574;28;20070;-51
2022/03/16 09:47:02;;;;;;;17.42;10.63;;;;;;;;;;4980048;28;20030;-50
2022/03/16 09:49:27;;;;;;;15.70;10.50;;;;;;;;;;4981919;28;20030;-50
2022/03/16 09:51:53;;;;;;;14.57;9.67;;;;;;;;;;4983099;28;20061;-51
2022/03/16 09:54:18;;;;;;;14.95;9.68;;;;;;;;;;4982574;28;20066;-50
2022/03/16 09:56:44;;;;;;;14.57;9.70;;;;;;;;;;4978541;28;20035;-50
2022/03/16 09:59:10;;;;;;;15.52;10.20;;;;;;;;;;4964836;28;20773;-51
2022/03/16 10:01:35;;;;;;;15.13;10.10;;;;;;;;;;4983373;28;20553;-51
2022/03/16 10:04:00;;;;;;;14.68;9.98;;;;;;;;;;4973831;28;20034;-49
2022/03/16 10:06:26;;;;;;;16.63;11.07;;;;;;;;;;4964276;28;20411;-51
2022/03/16 10:14:19;;;;;;;20.67;12.05;;;;;;;;;;4964177;28;20485;-51
2022/03/16 10:19:48;;;;;;;20.30;12.77;;;;;;;;;;4966658;28;20269;-50
2022/03/16 10:22:20;;;;;;;20.80;12.68;;;;;;;;;;4964226;28;20127;-50
2022/03/16 10:24:45;;;;;;;21.13;13.52;;;;;;;;;;4962583;28;20422;-51
2022/03/16 10:27:10;;;;;;;17.73;12.30;;;;;;;;;;4965334;28;20027;-51
2022/03/16 10:29:36;;;;;;;17.23;11.50;;;;;;;;;;4963979;28;21124;-51
2022/03/16 10:32:02;;;;;;;19.77;12.50;;;;;;;;;;4964077;28;20060;-51
2022/03/16 10:34:27;;;;;;;21.33;12.30;;;;;;;;;;4968627;28;20753;-51
2022/03/16 10:36:52;;;;;;;19.73;11.53;;;;;;;;;;4982370;28;20711;-50
2022/03/16 10:39:18;;;;;;;22.65;12.25;;;;;;;;;;4986164;28;20458;-51
2022/03/16 10:47:13;;;;;;;23.35;11.77;;;;;;;;;;5001185;28;20448;-51
2022/03/16 10:49:38;;;;;;;19.83;11.77;;;;;;;;;;5005369;28;20060;-51
2022/03/16 10:52:10;;;;;;;19.23;12.18;;;;;;;;;;4997233;28;20113;-51
2022/03/16 10:54:36;;;;;;;18.85;11.95;;;;;;;;;;4985725;28;20047;-51
2022/03/16 10:57:02;;;;;;;18.65;11.68;;;;;;;;;;4978075;28;20614;-51
2022/03/16 10:59:29;;;;;;;19.50;11.93;;;;;;;;;;4985632;28;20458;-50
2022/03/16 11:01:57;;;;;;;18.23;11.77;;;;;;;;;;4985022;28;20022;-51
2022/03/16 11:04:25;;;;;;;19.45;11.40;;;;;;;;;;4982263;28;20045;-51
2022/03/16 11:06:50;;;;;;;18.63;11.63;;;;;;;;;;4967625;28;20030;-51
2022/03/16 11:09:17;;;;;;;17.58;11.75;;;;;;;;;;4983500;28;20041;-52
2022/03/16 11:14:27;;;;;;;17.85;10.82;;;;;;;;;;4984155;28;20041;-51
2022/03/16 11:16:52;;;;;;;18.40;11.82;;;;;;;;;;4984389;28;20022;-52
2022/03/16 11:19:17;;;;;;;18.27;10.80;;;;;;;;;;4984776;28;20164;-52
2022/03/16 11:21:45;;;;;;;19.25;12.35;;;;;;;;;;4985333;28;20273;-50
2022/03/16 11:24:18;;;;;;;20.13;11.73;;;;;;;;;;4982422;28;20064;-51
2022/03/16 11:27:07;;;;;;;18.92;12.00;;;;;;;;;;4985130;28;20039;-51
2022/03/16 11:29:51;;;;;;;18.83;12.43;;;;;;;;;;4981150;28;20027;-50
2022/03/16 11:32:17;;;;;;;19.63;11.98;;;;;;;;;;4984682;28;20092;-52
2022/03/16 11:35:02;;;;;;;20.58;12.45;;;;;;;;;;4985159;28;20022;-52
2022/03/16 11:37:31;;;;;;;17.95;12.15;;;;;;;;;;4985814;28;20054;-53
2022/03/16 11:39:59;;;;;;;17.93;11.77;;;;;;;;;;4986130;28;20418;-52
2022/03/16 11:42:25;;;;;;;16.50;11.82;;;;;;;;;;4989518;28;20042;-53
2022/03/16 11:44:51;;;;;;;20.88;12.20;;;;;;;;;;4989653;28;20022;-50
2022/03/16 11:47:22;;;;;;;19.45;12.20;;;;;;;;;;4987316;28;20049;-51
2022/03/16 11:50:11;;;;;;;20.17;12.35;;;;;;;;;;4987327;28;20026;-53
2022/03/16 11:52:59;;;;;;;18.23;12.18;;;;;;;;;;4968568;28;20046;-51
2022/03/16 11:55:36;;;;;;;17.90;12.15;;;;;;;;;;4987488;28;20047;-52
2022/03/16 11:58:04;;;;;;;20.42;12.85;;;;;;;;;;4985872;28;20029;-51
2022/03/16 12:00:38;;;;;;;20.20;12.60;;;;;;;;;;4984927;28;20034;-52
2022/03/16 12:03:04;;;;;;;20.95;12.70;;;;;;;;;;4987883;28;20030;-51
2022/03/16 12:05:49;;;;;;;20.13;12.65;;;;;;;;;;4968005;28;20049;-52
2022/03/16 12:08:15;;;;;;;20.00;12.27;;;;;;;;;;4984355;28;20041;-51
2022/03/16 12:10:46;;;;;;;18.38;11.80;;;;;;;;;;4984220;28;20034;-52
2022/03/16 12:13:12;;;;;;;20.48;12.27;;;;;;;;;;4984140;28;20030;-52
2022/03/16 12:15:37;;;;;;;20.70;12.35;;;;;;;;;;4982349;28;20117;-52
2022/03/16 12:18:07;;;;;;;19.15;12.10;;;;;;;;;;4981764;28;20079;-52
2022/03/16 12:20:40;;;;;;;17.08;11.70;;;;;;;;;;4975949;28;20027;-52
2022/03/16 12:23:10;;;;;;;18.20;12.18;;;;;;;;;;4999494;28;20105;-51
2022/03/16 12:25:35;;;;;;;20.38;11.82;;;;;;;;;;4983261;28;20019;-52
2022/03/16 12:30:59;;;;;;;19.77;11.70;;;;;;;;;;4975535;28;20057;-52
2022/03/16 12:33:25;;;;;;;18.88;11.85;;;;;;;;;;4967851;28;20058;-52
2022/03/16 12:35:58;;;;;;;19.48;11.48;;;;;;;;;;4968668;28;20080;-53
2022/03/16 12:38:23;;;;;;;18.98;11.95;;;;;;;;;;4982053;28;20026;-52
2022/03/16 12:43:33;;;;;;;20.65;11.90;;;;;;;;;;4969061;28;20598;-52
2022/03/16 12:46:33;;;;;;;18.90;12.23;;;;;;;;;;4970576;28;20051;-52
2022/03/16 12:49:01;;;;;;;18.23;10.93;;;;;;;;;;4971621;28;20041;-53
2022/03/16 12:51:36;;;;;;;18.05;12.02;;;;;;;;;;4978706;28;20018;-52
2022/03/16 12:54:02;;;;;;;18.58;11.57;;;;;;;;;;4970861;28;20136;-51
2022/03/16 12:56:27;;;;;;;21.17;11.90;;;;;;;;;;4983655;28;20537;-50
2022/03/16 12:58:55;;;;;;;18.08;11.75;;;;;;;;;;4977008;28;20026;-51
2022/03/16 13:01:21;;;;;;;19.85;11.45;;;;;;;;;;4965029;28;20027;-51
2022/03/16 13:03:46;;;;;;;19.85;12.25;;;;;;;;;;4974155;28;20025;-51
2022/03/16 13:06:16;;;;;;;19.45;12.20;;;;;;;;;;4976539;28;20051;-52
2022/03/16 13:08:42;;;;;;;17.33;11.50;;;;;;;;;;4976506;28;20026;-52
2022/03/16 13:11:17;;;;;;;17.98;11.23;;;;;;;;;;4981669;28;20118;-51
2022/03/16 13:13:46;;;;;;;16.67;10.80;;;;;;;;;;4983015;28;20077;-51
2022/03/16 13:16:28;;;;;;;19.90;12.35;;;;;;;;;;4982798;28;20125;-52
2022/03/16 13:18:53;;;;;;;19.92;11.88;;;;;;;;;;4997617;28;20116;-50
2022/03/16 13:21:22;;;;;;;18.60;11.15;;;;;;;;;;5002564;28;20085;-52
2022/03/16 13:23:47;;;;;;;17.92;12.13;;;;;;;;;;4967383;28;20029;-52
2022/03/16 13:26:13;;;;;;;19.87;11.87;;;;;;;;;;4977440;28;20038;-51
2022/03/16 13:28:38;;;;;;;17.57;11.17;;;;;;;;;;4963128;28;20479;-52
2022/03/16 13:31:03;;;;;;;20.27;11.57;;;;;;;;;;4982126;28;20277;-52
2022/03/16 13:33:28;;;;;;;18.73;11.43;;;;;;;;;;4980652;28;20022;-52
2022/03/16 13:36:12;;;;;;;18.88;11.10;;;;;;;;;;4982757;28;20077;-49
2022/03/16 13:38:38;;;;;;;19.02;11.05;;;;;;;;;;4982879;28;20033;-50
2022/03/16 13:41:09;;;;;;;18.25;11.88;;;;;;;;;;4979471;28;20022;-49
2022/03/16 13:43:36;;;;;;;17.92;12.25;;;;;;;;;;4963305;28;20082;-49
2022/03/16 13:46:01;;;;;;;18.30;11.98;;;;;;;;;;4978042;28;20105;-50
2022/03/16 13:48:27;;;;;;;19.85;12.40;;;;;;;;;;5002404;28;20489;-52
2022/03/16 13:50:54;;;;;;;20.48;13.60;;;;;;;;;;5002217;28;20493;-50
2022/03/16 13:53:24;;;;;;;21.52;13.68;;;;;;;;;;4984036;28;20088;-50
2022/03/16 13:55:51;;;;;;;20.95;12.48;;;;;;;;;;4981514;28;20041;-51
2022/03/16 13:58:25;;;;;;;21.05;13.32;;;;;;;;;;4982702;28;20406;-49
2022/03/16 14:00:54;;;;;;;23.13;14.35;;;;;;;;;;4980271;28;20077;-50
2022/03/16 14:03:22;;;;;;;21.88;14.02;;;;;;;;;;4982625;28;20084;-50
2022/03/16 14:05:47;;;;;;;21.17;13.00;;;;;;;;;;4981540;28;20054;-50
2022/03/16 14:08:12;;;;;;;20.40;13.43;;;;;;;;;;4983194;28;20072;-51
2022/03/16 14:10:38;;;;;;;22.23;13.60;;;;;;;;;;4986670;28;20306;-50
2022/03/16 14:13:04;;;;;;;23.65;14.68;;;;;;;;;;4986597;28;20125;-50
2022/03/16 14:15:29;;;;;;;22.20;13.80;;;;;;;;;;4986637;28;20085;-51
2022/03/16 14:17:58;;;;;;;22.57;13.67;;;;;;;;;;4984787;28;20410;-50
2022/03/16 14:20:33;;;;;;;22.10;14.57;;;;;;;;;;4985461;28;21081;-50
2022/03/16 14:22:59;;;;;;;23.73;13.93;;;;;;;;;;4973734;28;20082;-50
2022/03/16 14:25:27;;;;;;;24.85;15.45;;;;;;;;;;4966111;28;20764;-50
2022/03/16 14:27:53;;;;;;;22.08;14.48;;;;;;;;;;4971033;28;20031;-50
2022/03/16 14:30:23;;;;;;;22.40;14.60;;;;;;;;;;4965970;28;20564;-51
2022/03/16 14:32:49;;;;;;;22.48;14.40;;;;;;;;;;4969107;28;20093;-49
2022/03/16 14:35:15;;;;;;;21.45;13.90;;;;;;;;;;4983725;28;20072;-50
2022/03/16 14:37:41;;;;;;;23.33;14.77;;;;;;;;;;4986384;28;20037;-50
2022/03/16 14:40:06;;;;;;;22.80;13.35;;;;;;;;;;4986223;28;20026;-50
2022/03/16 14:42:31;;;;;;;21.35;13.93;;;;;;;;;;4986698;28;20046;-51
2022/03/16 14:44:58;;;;;;;20.85;13.07;;;;;;;;;;4966651;28;20031;-51
2022/03/16 14:47:23;;;;;;;23.35;14.25;;;;;;;;;;4966079;28;20030;-50